This is the latest recevied weather packets stored in our database for station/object S51UL-6. If no packets are shown the sender has not sent any weather packets the latest 1 day(s).
| Time | Temp. | Humidity | Pressure | Rain* | Wind** | Luminosity | Snow |
|---|---|---|---|---|---|---|---|
| 1778050998 | 17.78° C | 73% | 1010.4 hPa | 0 mm | - | - | - |
| 1778050698 | 17.78° C | 73% | 1010.4 hPa | 0 mm | - | - | - |
| 1778050398 | 17.22° C | 77% | 1010.6 hPa | 0 mm | - | - | - |
| 1778050098 | 16.67° C | 79% | 1010.6 hPa | 0 mm | - | - | - |
| 1778049498 | 15.56° C | 84% | 1010.9 hPa | 0 mm | - | - | - |
| 1778048899 | 14.44° C | 85% | 1010.9 hPa | 0 mm | - | - | - |
| 1778048000 | 13.33° C | 88% | 1011 hPa | 0 mm | - | - | - |
| 1778047400 | 11.67° C | 88% | 1011 hPa | 0 mm | - | - | - |
| 1778047099 | 11.67° C | 88% | 1010.9 hPa | 0 mm | - | - | - |
| 1778046199 | 10.56° C | 88% | 1010.8 hPa | 0 mm | - | - | - |
| 1778045992 | 10° C | 88% | 1010.7 hPa | 0 mm | - | - | - |
| 1778045899 | 10° C | 88% | 1010.7 hPa | 0 mm | - | - | - |
| 1778044999 | 8.89° C | 88% | 1010.9 hPa | 0 mm | - | - | - |
| 1778044699 | 8.33° C | 88% | 1011 hPa | 0 mm | - | - | - |
| 1778044399 | 8.33° C | 87% | 1010.9 hPa | 0 mm | - | - | - |
| 1778043799 | 7.22° C | 87% | 1010.9 hPa | 0 mm | - | - | - |
| 1778043499 | 7.22° C | 87% | 1010.9 hPa | 0 mm | - | - | - |
| 1778043200 | 6.67° C | 87% | 1010.9 hPa | 0 mm | - | - | - |
| 1778042600 | 6.67° C | 87% | 1010.9 hPa | 0 mm | - | - | - |
| 1778042299 | 6.11° C | 87% | 1010.7 hPa | 0 mm | - | - | - |
| 1778042000 | 6.11° C | 87% | 1010.8 hPa | 0 mm | - | - | - |
| 1778041700 | 6.11° C | 86% | 1010.8 hPa | 0 mm | - | - | - |
| 1778041400 | 6.11° C | 86% | 1010.8 hPa | 0 mm | - | - | - |
| 1778041101 | 6.11° C | 86% | 1010.7 hPa | 0 mm | - | - | - |
| 1778040500 | 6.11° C | 86% | 1010.6 hPa | 0 mm | - | - | - |
* Rain latest hour (hover to see other rain measurements)
** Current wind speed in m/s (hover to see current wind gust speed)